Time;durP1;ratioP1;P1;durP2;ratioP2;P2;SDS_P1;SDS_P2;PMS_P1;PMS_P2;Temp;Humidity;BMP_temperature;BMP_pressure;BME280_temperature;BME280_humidity;BME280_pressure;Samples;Min_cycle;Max_cycle;Signal;HPM_P1;HPM_P2
2023/06/20 00:00:37;;;;;;;86.17;2.47;;;25.00;37.90;;;;;;4973775;28;20190;-70
2023/06/20 00:03:03;;;;;;;87.27;2.80;;;25.60;37.20;;;;;;4974004;28;20571;-69
2023/06/20 00:05:28;;;;;;;86.27;2.37;;;26.20;34.70;;;;;;4974016;28;20174;-69
2023/06/20 00:07:54;;;;;;;86.40;2.47;;;26.30;35.50;;;;;;4974399;28;20856;-71
2023/06/20 00:10:20;;;;;;;86.20;2.40;;;25.50;35.10;;;;;;4974405;28;20178;-69
2023/06/20 00:12:46;;;;;;;86.17;2.23;;;25.40;36.40;;;;;;4973966;28;20246;-69
2023/06/20 00:15:12;;;;;;;87.00;2.63;;;25.50;35.80;;;;;;4973931;28;20457;-69
2023/06/20 00:17:38;;;;;;;86.63;2.30;;;25.90;36.30;;;;;;4974250;28;20265;-69
2023/06/20 00:20:05;;;;;;;88.07;2.83;;;26.20;33.50;;;;;;4973906;28;20193;-69
2023/06/20 00:22:35;;;;;;;86.77;2.40;;;26.40;33.40;;;;;;4973605;28;20840;-69
2023/06/20 00:25:06;;;;;;;85.90;2.17;;;25.90;33.40;;;;;;4973652;28;20406;-69
2023/06/20 00:27:32;;;;;;;86.73;2.53;;;25.40;35.80;;;;;;4974071;28;20402;-69
2023/06/20 00:29:57;;;;;;;86.93;2.33;;;25.10;38.00;;;;;;4973696;28;20860;-69
2023/06/20 00:32:23;;;;;;;87.40;2.50;;;23.50;48.60;;;;;;4973991;28;20552;-69
2023/06/20 00:34:49;;;;;;;87.60;2.30;;;22.90;55.20;;;;;;4956113;28;20554;-70
2023/06/20 00:37:14;;;;;;;87.70;2.27;;;22.60;55.60;;;;;;4973951;28;20221;-70
2023/06/20 00:39:40;;;;;;;88.00;2.97;;;22.10;60.90;;;;;;4973304;28;20227;-70
2023/06/20 00:42:15;;;;;;;88.47;2.47;;;21.90;63.30;;;;;;4973148;28;20219;-69
2023/06/20 00:44:42;;;;;;;87.67;2.13;;;22.10;63.90;;;;;;4980634;23;20255;-74
2023/06/20 00:47:08;;;;;;;91.70;3.07;;;22.30;64.00;;;;;;4964214;28;20422;-72
2023/06/20 00:49:33;;;;;;;88.07;2.43;;;22.20;64.50;;;;;;4953776;28;20417;-72
2023/06/20 00:52:02;;;;;;;88.20;2.43;;;22.20;65.00;;;;;;4953928;28;20421;-75
2023/06/20 00:54:28;;;;;;;88.57;2.57;;;22.50;63.50;;;;;;4953860;29;20200;-71
2023/06/20 00:56:54;;;;;;;88.90;2.87;;;22.70;61.80;;;;;;4968600;28;20419;-72
2023/06/20 00:59:19;;;;;;;88.10;2.37;;;22.80;60.40;;;;;;4953794;28;20410;-72
2023/06/20 01:01:45;;;;;;;88.47;2.43;;;22.50;63.40;;;;;;4953797;29;20279;-76
2023/06/20 01:04:12;;;;;;;88.90;2.83;;;22.50;64.60;;;;;;4953856;29;20571;-71
2023/06/20 01:06:47;;;;;;;88.70;2.53;;;22.20;67.00;;;;;;4953700;28;20177;-76
2023/06/20 01:09:19;;;;;;;88.70;2.20;;;22.00;73.20;;;;;;4953598;28;20408;-73
2023/06/20 01:12:17;;;;;;;89.00;2.60;;;22.50;70.30;;;;;;4953032;28;20776;-71
2023/06/20 01:15:15;;;;;;;89.30;2.60;;;22.80;65.00;;;;;;4952793;29;20824;-76
2023/06/20 01:18:09;;;;;;;88.87;2.33;;;23.10;64.70;;;;;;4953555;28;20408;-71
2023/06/20 01:20:43;;;;;;;89.37;2.40;;;22.80;65.90;;;;;;4953313;28;21036;-72
2023/06/20 01:23:15;;;;;;;89.03;2.30;;;23.00;63.90;;;;;;4953646;28;20412;-72
2023/06/20 01:25:59;;;;;;;89.07;2.50;;;23.20;60.40;;;;;;4952974;29;20407;-72
2023/06/20 01:28:35;;;;;;;88.80;2.20;;;23.30;62.80;;;;;;4953734;29;20402;-72
2023/06/20 01:31:09;;;;;;;89.53;2.60;;;23.30;61.90;;;;;;4953107;29;20494;-71
2023/06/20 01:33:46;;;;;;;89.70;2.27;;;23.40;61.40;;;;;;4953570;29;20474;-72
2023/06/20 01:36:14;;;;;;;89.47;2.33;;;23.50;61.10;;;;;;4953556;29;20755;-71
2023/06/20 01:38:44;;;;;;;89.10;2.20;;;23.60;60.60;;;;;;4953548;29;20428;-72
2023/06/20 01:41:11;;;;;;;89.17;2.17;;;23.60;61.20;;;;;;4952986;29;20463;-71
2023/06/20 01:43:38;;;;;;;89.67;2.43;;;23.50;61.50;;;;;;4959034;29;20434;-72
2023/06/20 01:46:06;;;;;;;89.97;2.67;;;23.50;62.00;;;;;;4954040;28;20770;-71
2023/06/20 01:48:34;;;;;;;89.87;2.50;;;23.50;63.30;;;;;;4953472;29;20466;-71
2023/06/20 01:51:00;;;;;;;89.70;2.40;;;23.50;61.80;;;;;;4953159;29;20415;-71
2023/06/20 01:53:27;;;;;;;90.80;2.50;;;23.60;61.60;;;;;;4954600;28;20412;-71
2023/06/20 01:55:54;;;;;;;89.53;2.40;;;23.50;61.90;;;;;;4956744;28;20482;-76
2023/06/20 01:58:20;;;;;;;89.57;2.13;;;23.40;61.50;;;;;;4957235;29;20446;-71
2023/06/20 02:00:47;;;;;;;90.70;2.53;;;22.80;62.70;;;;;;4957201;28;20412;-73
2023/06/20 02:03:16;;;;;;;90.10;2.53;;;22.70;64.30;;;;;;4959040;28;20510;-76
2023/06/20 02:05:42;;;;;;;90.50;2.40;;;23.00;65.70;;;;;;4957052;28;20435;-75
2023/06/20 02:08:09;;;;;;;90.70;2.40;;;23.40;63.70;;;;;;4956805;28;20417;-72
2023/06/20 02:10:36;;;;;;;90.70;2.53;;;23.50;61.70;;;;;;4957353;29;20409;-72
2023/06/20 02:13:02;;;;;;;90.40;2.20;;;23.50;60.50;;;;;;4957030;28;20427;-72
2023/06/20 02:15:29;;;;;;;90.57;2.50;;;23.60;61.20;;;;;;4956516;29;20423;-72
2023/06/20 02:17:55;;;;;;;91.40;2.60;;;23.70;60.70;;;;;;4955388;29;20792;-72
2023/06/20 02:20:21;;;;;;;144.70;2.87;;;23.60;61.20;;;;;;4956974;28;20413;-76
2023/06/20 02:22:50;;;;;;;90.80;2.20;;;23.50;61.10;;;;;;4956486;28;20463;-76
2023/06/20 02:25:26;;;;;;;90.90;2.20;;;23.50;61.10;;;;;;4956422;29;20446;-72
2023/06/20 02:27:54;;;;;;;90.70;2.27;;;23.20;61.70;;;;;;4956455;28;20392;-72
2023/06/20 02:30:24;;;;;;;90.77;2.20;;;22.30;63.70;;;;;;4956496;29;20490;-75
2023/06/20 02:32:52;;;;;;;91.50;2.53;;;22.50;64.30;;;;;;4956468;28;20413;-72
2023/06/20 02:35:19;;;;;;;91.60;2.27;;;22.90;63.10;;;;;;4956384;28;20935;-74
2023/06/20 02:37:45;;;;;;;91.40;2.53;;;22.90;63.30;;;;;;4956038;28;20851;-72
2023/06/20 02:40:11;;;;;;;91.63;2.33;;;22.80;65.00;;;;;;4956418;29;20509;-72
2023/06/20 02:42:36;;;;;;;91.60;2.20;;;22.70;65.70;;;;;;4955794;29;20279;-76
2023/06/20 02:45:02;;;;;;;91.80;2.40;;;22.60;63.70;;;;;;4955880;29;20556;-73
2023/06/20 02:47:35;;;;;;;91.80;2.27;;;22.80;65.20;;;;;;4955988;29;20172;-77
2023/06/20 02:50:27;;;;;;;91.90;2.30;;;23.00;64.40;;;;;;4956106;28;20424;-72
2023/06/20 02:53:30;;;;;;;92.10;2.30;;;23.20;62.70;;;;;;4955884;28;20395;-72
2023/06/20 02:56:01;;;;;;;92.10;2.50;;;23.30;61.90;;;;;;4934093;29;20430;-74
2023/06/20 02:58:29;;;;;;;92.20;2.40;;;23.40;61.00;;;;;;4934603;29;20416;-72
2023/06/20 03:00:58;;;;;;;92.87;2.83;;;23.50;58.60;;;;;;4934569;29;20428;-72
2023/06/20 03:03:35;;;;;;;92.70;2.50;;;23.50;60.20;;;;;;4934329;29;20420;-71
2023/06/20 03:06:02;;;;;;;92.30;2.20;;;23.40;61.50;;;;;;4934394;29;20407;-72
2023/06/20 03:08:29;;;;;;;92.83;2.40;;;23.30;60.90;;;;;;4934367;29;20842;-72
2023/06/20 03:10:56;;;;;;;92.60;2.40;;;23.30;60.90;;;;;;4934274;29;20420;-72
2023/06/20 03:13:22;;;;;;;93.20;2.80;;;23.40;61.00;;;;;;4933932;29;20420;-71
2023/06/20 03:15:51;;;;;;;92.90;2.30;;;23.40;59.60;;;;;;4933915;29;20415;-74
2023/06/20 03:18:17;;;;;;;93.47;2.50;;;23.40;60.40;;;;;;4934196;29;20186;-76
2023/06/20 03:20:48;;;;;;;93.20;2.37;;;23.40;60.50;;;;;;4934004;29;20451;-72
2023/06/20 03:23:14;;;;;;;93.30;2.43;;;23.40;60.00;;;;;;4933285;29;20414;-71
2023/06/20 03:25:39;;;;;;;93.27;2.20;;;23.30;60.90;;;;;;4935596;29;20416;-72
2023/06/20 03:28:05;;;;;;;93.40;2.40;;;23.20;60.30;;;;;;4955452;29;20445;-72
2023/06/20 03:30:31;;;;;;;93.47;2.30;;;23.20;60.80;;;;;;4955465;29;20209;-76
2023/06/20 03:32:56;;;;;;;93.90;2.63;;;23.20;60.30;;;;;;4955171;29;20213;-69
2023/06/20 03:35:22;;;;;;;93.30;2.03;;;23.30;59.60;;;;;;4955240;28;20349;-70
2023/06/20 03:37:47;;;;;;;93.67;2.40;;;23.30;60.00;;;;;;4955276;29;20175;-74
2023/06/20 03:40:13;;;;;;;93.73;2.23;;;23.20;59.30;;;;;;4955411;29;20188;-74
2023/06/20 03:42:38;;;;;;;94.27;2.50;;;23.40;58.80;;;;;;4955050;29;20211;-70
2023/06/20 03:45:05;;;;;;;93.93;2.43;;;23.40;58.20;;;;;;4954370;29;20209;-70
2023/06/20 03:47:30;;;;;;;94.00;2.40;;;23.40;59.00;;;;;;4955328;28;20214;-70
2023/06/20 03:49:56;;;;;;;94.00;2.33;;;23.40;58.30;;;;;;4955092;29;20493;-70
2023/06/20 03:52:21;;;;;;;94.00;2.27;;;23.30;58.00;;;;;;4954939;29;20182;-73
2023/06/20 03:54:47;;;;;;;94.37;2.27;;;23.40;56.80;;;;;;4954477;29;20187;-70
2023/06/20 03:57:12;;;;;;;94.10;2.40;;;23.30;57.10;;;;;;4955103;29;20183;-70
2023/06/20 03:59:38;;;;;;;94.83;2.67;;;23.20;58.50;;;;;;4954657;28;20641;-70
2023/06/20 04:02:04;;;;;;;94.70;2.30;;;23.20;57.70;;;;;;4954643;29;20236;-73
2023/06/20 04:04:29;;;;;;;94.70;2.70;;;23.30;57.10;;;;;;4954733;29;20190;-70
2023/06/20 04:06:55;;;;;;;94.60;2.30;;;23.20;58.20;;;;;;4954576;28;20319;-70
2023/06/20 04:09:25;;;;;;;94.57;2.43;;;23.20;58.20;;;;;;4969426;28;20645;-73
2023/06/20 04:11:50;;;;;;;94.70;2.30;;;23.20;57.70;;;;;;4954546;28;20176;-70
2023/06/20 04:14:16;;;;;;;95.17;2.63;;;23.20;58.00;;;;;;4954192;29;20449;-71
2023/06/20 04:16:42;;;;;;;94.83;2.13;;;23.10;59.40;;;;;;4953850;28;20210;-74
2023/06/20 04:19:07;;;;;;;95.00;2.30;;;23.10;58.60;;;;;;4954551;28;20211;-70
2023/06/20 04:21:33;;;;;;;95.10;2.37;;;23.10;58.70;;;;;;4954229;29;20203;-71
2023/06/20 04:23:59;;;;;;;95.27;2.40;;;23.20;57.80;;;;;;4953722;28;20573;-71
2023/06/20 04:26:25;;;;;;;95.30;2.53;;;23.30;57.30;;;;;;4954173;29;20175;-71
2023/06/20 04:28:50;;;;;;;95.30;2.50;;;23.40;58.40;;;;;;4953793;29;20175;-74
2023/06/20 04:31:16;;;;;;;96.27;2.77;;;23.40;58.20;;;;;;4954269;29;20186;-70
2023/06/20 04:33:44;;;;;;;94.80;2.30;;;23.40;58.00;;;;;;4953471;29;20261;-71
2023/06/20 04:36:13;;;;;;;95.67;2.50;;;23.60;57.10;;;;;;4953892;29;20187;-70
2023/06/20 04:38:47;;;;;;;95.30;2.20;;;23.50;55.30;;;;;;4953746;29;20423;-71
2023/06/20 04:41:13;;;;;;;95.47;2.40;;;23.50;53.90;;;;;;4953862;29;20978;-70
2023/06/20 04:43:39;;;;;;;95.47;2.33;;;23.40;56.20;;;;;;4953094;29;20450;-79
2023/06/20 04:46:04;;;;;;;98.40;2.53;;;23.50;55.40;;;;;;4953675;29;20223;-70
2023/06/20 04:48:35;;;;;;;95.80;2.60;;;23.50;56.20;;;;;;4953758;28;20180;-70
2023/06/20 04:51:01;;;;;;;95.60;2.33;;;23.60;56.70;;;;;;4953558;29;20175;-75
2023/06/20 04:53:27;;;;;;;96.00;2.60;;;23.60;57.00;;;;;;4953480;29;20448;-72
2023/06/20 04:55:54;;;;;;;95.50;2.23;;;23.70;56.40;;;;;;4952616;29;20420;-77
2023/06/20 04:58:19;;;;;;;95.47;2.47;;;23.70;55.10;;;;;;4953507;29;20546;-73
2023/06/20 05:00:45;;;;;;;95.67;2.27;;;23.90;54.30;;;;;;4953472;29;20420;-74
2023/06/20 05:03:10;;;;;;;96.10;2.60;;;23.90;50.80;;;;;;4953889;29;20192;-71
2023/06/20 05:05:36;;;;;;;95.97;2.60;;;24.00;54.10;;;;;;4953416;28;20648;-71
2023/06/20 05:08:02;;;;;;;95.77;2.50;;;24.00;48.50;;;;;;4953700;28;20175;-70
2023/06/20 05:10:27;;;;;;;95.60;2.23;;;24.30;49.20;;;;;;4953706;28;20183;-71
2023/06/20 05:12:53;;;;;;;95.77;2.40;;;24.30;51.30;;;;;;4953765;29;20175;-74
2023/06/20 05:15:25;;;;;;;95.83;2.57;;;24.10;53.90;;;;;;4953124;29;20202;-70
2023/06/20 05:17:53;;;;;;;95.90;2.70;;;24.10;54.00;;;;;;4953610;29;20162;-70
2023/06/20 05:20:19;;;;;;;96.20;2.50;;;24.30;54.00;;;;;;4953658;29;20904;-72
2023/06/20 05:22:45;;;;;;;96.47;2.53;;;24.30;53.90;;;;;;4953689;29;20479;-71
2023/06/20 05:25:11;;;;;;;95.97;2.50;;;24.30;52.80;;;;;;4953178;29;20223;-70
2023/06/20 05:27:37;;;;;;;95.77;2.40;;;24.30;54.20;;;;;;4953597;28;20269;-71
2023/06/20 05:30:03;;;;;;;95.67;2.30;;;24.40;47.70;;;;;;4953631;29;20208;-71
2023/06/20 05:32:29;;;;;;;95.90;2.50;;;24.60;51.70;;;;;;4953609;29;20455;-70
2023/06/20 05:34:54;;;;;;;96.20;2.37;;;24.60;47.00;;;;;;4953168;29;20459;-71
2023/06/20 05:37:20;;;;;;;95.93;2.60;;;24.70;50.30;;;;;;4953547;29;20237;-74
2023/06/20 05:39:45;;;;;;;95.87;2.50;;;24.70;51.40;;;;;;4952148;29;20183;-70
2023/06/20 05:42:11;;;;;;;96.17;2.80;;;24.70;51.70;;;;;;4953232;28;20257;-71
2023/06/20 05:44:37;;;;;;;95.90;2.50;;;24.70;49.40;;;;;;4953092;29;20213;-70
2023/06/20 05:47:04;;;;;;;95.73;2.30;;;24.80;51.00;;;;;;4953602;28;20172;-71
2023/06/20 05:49:30;;;;;;;95.67;2.30;;;24.60;52.40;;;;;;4953521;29;20423;-70
2023/06/20 05:51:57;;;;;;;96.00;2.40;;;24.80;46.10;;;;;;4953032;28;20418;-71
2023/06/20 05:54:23;;;;;;;101.13;3.13;;;24.80;50.60;;;;;;4953280;28;20201;-71
2023/06/20 05:56:49;;;;;;;96.03;2.47;;;24.60;46.00;;;;;;4953098;28;20426;-73
2023/06/20 05:59:15;;;;;;;95.67;2.43;;;24.40;47.60;;;;;;4953257;28;20178;-71
2023/06/20 06:01:40;;;;;;;95.63;2.60;;;24.90;47.70;;;;;;4953185;29;20971;-73
2023/06/20 06:04:07;;;;;;;95.53;2.47;;;25.30;48.50;;;;;;4953112;29;20190;-70
2023/06/20 06:06:32;;;;;;;95.67;2.40;;;25.20;46.50;;;;;;4951767;29;20189;-74
2023/06/20 06:08:58;;;;;;;95.80;2.57;;;24.90;48.00;;;;;;4951969;29;20429;-71
2023/06/20 06:11:25;;;;;;;95.77;2.60;;;25.00;48.10;;;;;;4953250;28;20183;-70
2023/06/20 06:13:51;;;;;;;97.97;3.50;;;24.80;49.80;;;;;;4953070;28;20692;-70
2023/06/20 06:16:17;;;;;;;95.67;2.70;;;24.60;50.20;;;;;;4951587;29;20498;-71
2023/06/20 06:18:43;;;;;;;95.30;2.40;;;24.90;49.20;;;;;;4953132;28;20433;-73
2023/06/20 06:21:09;;;;;;;95.17;2.20;;;25.10;49.30;;;;;;4953181;29;20454;-73
2023/06/20 06:23:34;;;;;;;95.43;2.57;;;24.60;49.00;;;;;;4953228;29;20438;-70
2023/06/20 06:26:00;;;;;;;95.33;2.50;;;24.60;52.30;;;;;;4953141;28;20672;-71
2023/06/20 06:28:28;;;;;;;95.37;2.50;;;25.10;51.70;;;;;;4954263;28;20551;-70
2023/06/20 06:31:01;;;;;;;95.57;2.80;;;24.90;49.40;;;;;;4952936;28;20532;-71
2023/06/20 06:33:30;;;;;;;95.90;2.80;;;24.90;49.50;;;;;;4953259;29;20411;-71
2023/06/20 06:35:56;;;;;;;95.17;2.33;;;25.20;51.10;;;;;;4952717;29;20513;-71
2023/06/20 06:38:22;;;;;;;95.50;2.53;;;25.50;50.20;;;;;;4952982;28;20900;-71
2023/06/20 06:40:48;;;;;;;95.60;2.50;;;25.40;46.60;;;;;;4956576;29;20427;-72
2023/06/20 06:43:14;;;;;;;95.23;2.57;;;25.00;48.60;;;;;;4956061;29;20414;-71
2023/06/20 06:45:40;;;;;;;95.10;2.57;;;25.10;51.20;;;;;;4955926;29;20198;-71
2023/06/20 06:48:06;;;;;;;96.17;3.00;;;24.70;49.60;;;;;;4956347;28;20407;-71
2023/06/20 06:50:32;;;;;;;95.17;2.87;;;25.10;51.20;;;;;;4956354;29;20947;-73
2023/06/20 06:52:57;;;;;;;94.47;2.47;;;25.50;46.60;;;;;;4956221;29;20198;-70
2023/06/20 06:55:23;;;;;;;94.90;2.40;;;25.20;46.40;;;;;;4956117;28;20195;-70
2023/06/20 06:57:48;;;;;;;94.70;2.50;;;24.80;49.00;;;;;;4956031;28;20179;-70
2023/06/20 07:00:14;;;;;;;94.60;2.53;;;24.20;52.10;;;;;;4956238;29;20179;-71
2023/06/20 07:02:41;;;;;;;94.57;2.40;;;24.20;52.40;;;;;;4956075;29;20202;-72
2023/06/20 07:05:07;;;;;;;95.77;3.27;;;24.30;52.10;;;;;;4955591;28;20881;-71
2023/06/20 07:07:33;;;;;;;94.80;2.80;;;24.40;52.50;;;;;;4956049;29;20414;-71
2023/06/20 07:09:59;;;;;;;94.80;2.83;;;24.70;51.50;;;;;;4956154;28;20441;-70
2023/06/20 07:12:24;;;;;;;94.50;2.40;;;24.90;49.70;;;;;;4956037;29;20182;-71
2023/06/20 07:14:56;;;;;;;94.40;2.50;;;24.90;49.70;;;;;;4955535;29;20257;-70
2023/06/20 07:17:25;;;;;;;94.07;2.40;;;24.60;50.10;;;;;;4955976;29;20156;-71
2023/06/20 07:19:51;;;;;;;94.20;2.40;;;24.70;51.50;;;;;;4955498;29;20426;-71
2023/06/20 07:22:17;;;;;;;93.97;2.70;;;25.10;48.60;;;;;;4955714;29;21067;-70
2023/06/20 07:24:43;;;;;;;95.50;2.67;;;25.90;46.90;;;;;;4955542;29;20442;-73
2023/06/20 07:27:08;;;;;;;94.47;2.63;;;26.00;45.00;;;;;;4955723;28;20206;-73
2023/06/20 07:29:34;;;;;;;94.27;2.60;;;25.40;46.60;;;;;;4955526;29;20415;-71
2023/06/20 07:31:59;;;;;;;93.47;2.27;;;25.10;48.00;;;;;;4955589;28;20257;-71
2023/06/20 07:34:25;;;;;;;93.40;2.33;;;25.20;48.20;;;;;;4955653;28;20702;-70
2023/06/20 07:36:51;;;;;;;93.40;2.40;;;25.60;47.50;;;;;;4955410;29;20183;-73
2023/06/20 07:39:16;;;;;;;93.20;2.20;;;25.20;48.10;;;;;;4955218;29;20637;-70
2023/06/20 07:41:42;;;;;;;94.47;2.80;;;24.90;48.90;;;;;;4955473;28;20213;-71
2023/06/20 07:44:10;;;;;;;93.63;2.70;;;25.20;48.90;;;;;;4954793;29;20358;-71
2023/06/20 07:46:36;;;;;;;93.37;2.63;;;25.80;47.80;;;;;;4955286;28;20649;-72
2023/06/20 07:49:02;;;;;;;92.77;2.17;;;26.30;44.90;;;;;;4955233;28;20411;-71
2023/06/20 07:51:31;;;;;;;93.00;2.27;;;26.30;44.10;;;;;;4952809;28;20497;-71
2023/06/20 07:53:56;;;;;;;93.30;2.67;;;26.50;43.60;;;;;;4953886;28;20198;-72
2023/06/20 07:56:22;;;;;;;94.20;2.57;;;26.20;45.00;;;;;;4953884;28;20434;-71
2023/06/20 07:58:47;;;;;;;92.90;2.43;;;26.00;44.70;;;;;;4954974;29;20186;-73
2023/06/20 08:01:13;;;;;;;92.50;2.10;;;25.80;46.90;;;;;;4954800;29;20635;-73
2023/06/20 08:03:39;;;;;;;92.37;2.30;;;26.50;44.90;;;;;;4954832;28;20569;-71
2023/06/20 08:06:04;;;;;;;93.50;2.70;;;27.20;41.50;;;;;;4952816;28;20179;-71
2023/06/20 08:08:30;;;;;;;92.80;2.67;;;27.70;41.00;;;;;;4945746;29;20266;-72
2023/06/20 08:10:56;;;;;;;92.60;2.63;;;27.50;39.20;;;;;;4944106;29;20186;-72
2023/06/20 08:13:23;;;;;;;93.00;2.70;;;27.20;41.80;;;;;;4954783;28;20186;-73
2023/06/20 08:15:48;;;;;;;92.17;2.50;;;27.10;41.30;;;;;;4953925;28;20217;-74
2023/06/20 08:18:14;;;;;;;92.40;2.50;;;26.60;42.30;;;;;;4954659;29;20450;-74
2023/06/20 08:20:41;;;;;;;91.90;2.60;;;26.20;43.20;;;;;;4954649;29;20186;-73
2023/06/20 08:23:07;;;;;;;92.47;2.90;;;26.30;43.20;;;;;;4954146;29;20234;-75
2023/06/20 08:25:33;;;;;;;92.37;2.70;;;26.50;42.40;;;;;;4954144;28;20462;-75
2023/06/20 08:27:59;;;;;;;91.47;2.50;;;27.10;39.10;;;;;;4954409;28;20221;-75
2023/06/20 08:30:25;;;;;;;92.67;2.73;;;27.70;39.40;;;;;;4954446;28;20182;-75
2023/06/20 08:32:51;;;;;;;92.40;2.70;;;28.00;37.90;;;;;;4953983;28;20419;-75
2023/06/20 08:35:16;;;;;;;92.17;2.77;;;27.50;39.40;;;;;;4952604;28;20195;-74
2023/06/20 08:37:42;;;;;;;91.77;2.60;;;27.20;39.40;;;;;;4954199;28;20548;-75
2023/06/20 08:40:12;;;;;;;91.47;2.50;;;27.40;38.50;;;;;;4954279;28;20222;-75
2023/06/20 08:42:40;;;;;;;94.07;2.90;;;27.30;37.80;;;;;;4968749;28;20195;-74
2023/06/20 08:45:07;;;;;;;93.37;3.00;;;27.40;36.20;;;;;;4953311;28;20450;-76
2023/06/20 08:47:32;;;;;;;91.30;2.47;;;27.90;35.90;;;;;;4954132;28;20583;-74
2023/06/20 08:49:58;;;;;;;91.80;2.50;;;27.90;37.80;;;;;;4954172;28;20447;-74
2023/06/20 08:52:29;;;;;;;90.87;2.50;;;28.10;37.50;;;;;;4953877;28;20553;-75
2023/06/20 08:54:56;;;;;;;91.00;2.40;;;27.30;39.30;;;;;;4953756;28;20199;-74
2023/06/20 08:57:22;;;;;;;92.47;2.40;;;27.00;40.70;;;;;;4952765;29;20423;-74
2023/06/20 08:59:48;;;;;;;91.00;2.67;;;27.10;41.50;;;;;;4954090;28;20421;-74
2023/06/20 09:02:13;;;;;;;93.63;3.27;;;27.60;39.10;;;;;;4953793;28;20549;-73
2023/06/20 09:04:39;;;;;;;90.43;2.30;;;27.40;39.60;;;;;;4953496;28;20513;-74
2023/06/20 09:07:18;;;;;;;90.50;2.13;;;27.40;39.40;;;;;;4953801;28;20619;-74
2023/06/20 09:09:44;;;;;;;90.67;2.23;;;27.50;37.10;;;;;;4953965;28;20179;-74
2023/06/20 09:12:10;;;;;;;91.20;2.80;;;27.90;38.00;;;;;;4953414;28;20457;-74
2023/06/20 09:14:36;;;;;;;90.47;2.47;;;28.20;37.30;;;;;;4953374;28;20458;-74
2023/06/20 09:17:03;;;;;;;90.00;2.30;;;27.50;36.20;;;;;;4953430;28;20545;-74
2023/06/20 09:19:45;;;;;;;90.17;2.50;;;27.30;37.80;;;;;;4953904;28;20239;-75
2023/06/20 09:22:14;;;;;;;89.87;2.37;;;28.50;34.20;;;;;;4953368;29;20462;-75
2023/06/20 09:24:44;;;;;;;90.27;2.63;;;28.90;32.80;;;;;;4953474;28;20835;-74
2023/06/20 09:27:10;;;;;;;89.67;2.50;;;28.60;32.10;;;;;;4968218;28;20425;-75
2023/06/20 09:29:52;;;;;;;89.27;2.20;;;28.70;32.80;;;;;;4953972;28;20500;-75
2023/06/20 09:32:20;;;;;;;95.90;3.00;;;28.80;32.50;;;;;;4953458;28;20920;-74
2023/06/20 09:34:46;;;;;;;89.70;2.30;;;28.60;32.60;;;;;;4953131;28;20798;-74
2023/06/20 09:37:11;;;;;;;89.70;2.40;;;29.10;32.20;;;;;;4953236;28;20454;-73
2023/06/20 09:39:37;;;;;;;89.83;2.10;;;28.90;32.70;;;;;;4968398;28;20423;-75
2023/06/20 09:42:03;;;;;;;89.20;2.30;;;29.60;30.90;;;;;;4953397;28;20199;-75
2023/06/20 09:44:28;;;;;;;89.27;2.20;;;30.40;33.20;;;;;;4952579;28;20211;-74
2023/06/20 09:46:54;;;;;;;90.70;3.03;;;30.70;29.60;;;;;;4953441;28;20254;-74
2023/06/20 09:49:20;;;;;;;89.00;2.40;;;30.40;27.80;;;;;;4953411;28;20620;-73
2023/06/20 09:51:49;;;;;;;89.50;2.40;;;30.10;28.10;;;;;;4953255;28;20183;-75
2023/06/20 09:54:27;;;;;;;88.27;2.10;;;29.60;26.00;;;;;;4953137;28;20190;-74
2023/06/20 09:57:02;;;;;;;88.47;2.57;;;29.20;23.30;;;;;;4953312;28;20426;-74
2023/06/20 09:59:29;;;;;;;89.60;2.20;;;29.10;24.90;;;;;;4953293;28;20391;-74
2023/06/20 10:01:57;;;;;;;87.77;2.33;;;29.40;23.80;;;;;;4953122;28;20549;-75
2023/06/20 10:04:23;;;;;;;87.10;2.30;;;29.60;24.90;;;;;;4967938;28;20485;-74
2023/06/20 10:06:50;;;;;;;87.30;2.50;;;29.80;24.00;;;;;;4952759;28;20411;-74
2023/06/20 10:09:16;;;;;;;86.93;2.27;;;29.80;24.80;;;;;;4953139;28;20904;-75
2023/06/20 10:11:42;;;;;;;86.90;2.47;;;30.60;24.50;;;;;;4953233;28;20469;-75
2023/06/20 10:14:09;;;;;;;87.03;2.50;;;31.10;21.80;;;;;;4953492;28;20321;-75
2023/06/20 10:16:34;;;;;;;86.97;2.60;;;31.20;21.50;;;;;;4956679;29;20504;-73
2023/06/20 10:19:17;;;;;;;86.87;2.47;;;30.40;23.70;;;;;;4956542;28;20862;-75
2023/06/20 10:22:00;;;;;;;86.77;2.50;;;30.20;22.90;;;;;;4956873;28;20637;-75
2023/06/20 10:24:30;;;;;;;86.50;2.63;;;30.90;23.20;;;;;;4956625;28;20429;-73
2023/06/20 10:27:01;;;;;;;86.10;2.10;;;31.10;25.30;;;;;;4956602;28;20407;-74
2023/06/20 10:29:27;;;;;;;86.27;2.33;;;31.70;21.30;;;;;;4956780;28;20473;-73
2023/06/20 10:32:03;;;;;;;87.10;2.40;;;30.90;21.70;;;;;;4956522;29;20980;-74
2023/06/20 10:34:34;;;;;;;86.00;2.20;;;31.00;22.50;;;;;;4956056;28;20946;-74
2023/06/20 10:37:14;;;;;;;86.63;2.40;;;31.10;23.20;;;;;;4956412;28;20821;-75
2023/06/20 10:39:51;;;;;;;85.80;2.10;;;32.00;21.40;;;;;;4971217;28;20426;-75
2023/06/20 10:42:43;;;;;;;86.20;2.40;;;32.40;19.50;;;;;;4956471;28;20513;-73
2023/06/20 10:45:27;;;;;;;86.30;2.30;;;31.20;19.20;;;;;;4955377;28;20446;-75
2023/06/20 10:47:53;;;;;;;85.87;2.40;;;31.10;20.10;;;;;;4956142;28;20439;-75
2023/06/20 10:50:20;;;;;;;85.77;2.90;;;31.60;19.40;;;;;;4956222;28;20465;-73
2023/06/20 10:52:46;;;;;;;88.40;2.77;;;32.30;17.80;;;;;;4956147;28;20425;-75
2023/06/20 10:55:28;;;;;;;84.50;2.10;;;32.60;17.90;;;;;;4955808;28;20434;-74
2023/06/20 10:57:55;;;;;;;84.30;2.20;;;32.90;18.80;;;;;;4956144;28;20401;-74
2023/06/20 11:00:22;;;;;;;84.30;2.30;;;32.20;18.80;;;;;;4956142;28;20410;-74
2023/06/20 11:02:49;;;;;;;85.90;2.60;;;31.80;19.50;;;;;;4955894;28;20459;-71
2023/06/20 11:05:16;;;;;;;86.40;2.83;;;32.20;19.80;;;;;;4955748;28;20437;-74
2023/06/20 11:07:58;;;;;;;84.07;2.20;;;31.80;18.10;;;;;;4955721;28;20406;-73
2023/06/20 11:10:35;;;;;;;84.47;2.83;;;31.70;18.70;;;;;;4955959;28;20414;-74
2023/06/20 11:13:03;;;;;;;85.17;2.60;;;32.90;18.30;;;;;;4970649;28;20461;-74
2023/06/20 11:15:34;;;;;;;84.70;2.83;;;33.20;15.40;;;;;;4955501;28;20841;-75
2023/06/20 11:18:05;;;;;;;83.77;2.10;;;32.10;17.00;;;;;;4955639;28;20417;-75
2023/06/20 11:20:36;;;;;;;84.00;2.40;;;32.00;18.40;;;;;;4955545;28;20415;-75
2023/06/20 11:23:06;;;;;;;83.20;2.20;;;32.60;16.20;;;;;;4955487;28;20501;-75
2023/06/20 11:25:34;;;;;;;83.17;2.20;;;32.60;15.80;;;;;;4955054;28;20446;-73
2023/06/20 11:28:13;;;;;;;82.57;2.10;;;32.30;17.70;;;;;;4955397;28;20411;-75
2023/06/20 11:30:47;;;;;;;82.67;2.10;;;32.10;18.30;;;;;;4955662;28;20399;-74
2023/06/20 11:33:14;;;;;;;83.20;2.37;;;32.70;18.80;;;;;;4955406;28;20869;-73
2023/06/20 11:35:41;;;;;;;82.67;2.17;;;33.10;17.10;;;;;;4955291;28;20418;-75
2023/06/20 11:38:09;;;;;;;82.77;2.33;;;32.90;15.90;;;;;;4955225;28;20425;-74
2023/06/20 11:40:34;;;;;;;81.77;1.93;;;33.50;15.50;;;;;;4955214;28;20933;-74
2023/06/20 11:43:00;;;;;;;82.50;2.37;;;33.80;15.40;;;;;;4955604;28;20553;-75
2023/06/20 11:45:26;;;;;;;82.27;2.20;;;33.20;15.20;;;;;;4954879;28;20203;-74
2023/06/20 11:48:12;;;;;;;81.50;2.23;;;32.60;15.80;;;;;;4955217;28;20167;-75
2023/06/20 11:50:41;;;;;;;81.60;2.20;;;33.80;15.60;;;;;;4955132;28;21152;-75
2023/06/20 11:53:17;;;;;;;84.20;2.30;;;35.20;14.80;;;;;;4969603;28;20430;-74
2023/06/20 11:55:46;;;;;;;81.53;1.80;;;35.80;13.10;;;;;;4954922;28;20398;-73
2023/06/20 11:58:12;;;;;;;82.50;2.20;;;36.10;13.70;;;;;;4954993;28;20423;-75
2023/06/20 12:00:38;;;;;;;81.27;1.90;;;35.30;13.10;;;;;;4954839;28;20411;-75
2023/06/20 12:03:09;;;;;;;82.07;2.40;;;35.80;14.60;;;;;;4954829;28;20294;-75
2023/06/20 12:05:36;;;;;;;81.20;2.10;;;35.60;13.90;;;;;;4954742;28;20261;-75
2023/06/20 12:08:03;;;;;;;80.60;1.90;;;35.10;13.10;;;;;;4954951;28;20411;-75
2023/06/20 12:10:28;;;;;;;81.53;2.00;;;35.90;12.50;;;;;;4953594;28;20924;-75
2023/06/20 12:12:54;;;;;;;81.00;2.20;;;35.50;13.00;;;;;;4954780;28;20418;-75
2023/06/20 12:15:20;;;;;;;81.70;2.10;;;35.50;13.40;;;;;;4954115;28;20206;-75
2023/06/20 12:17:46;;;;;;;82.70;2.50;;;36.00;12.80;;;;;;4954969;28;20180;-75
2023/06/20 12:20:13;;;;;;;81.47;2.43;;;35.30;13.60;;;;;;4954945;28;20249;-73
2023/06/20 12:22:38;;;;;;;81.20;2.17;;;35.30;13.70;;;;;;4969783;28;20199;-75
2023/06/20 12:25:04;;;;;;;81.10;2.63;;;37.00;13.20;;;;;;4956053;28;20435;-76
2023/06/20 12:27:30;;;;;;;80.10;2.40;;;38.00;11.80;;;;;;4957057;28;20183;-76
2023/06/20 12:29:55;;;;;;;80.13;2.37;;;38.60;10.70;;;;;;4956426;28;20171;-75
2023/06/20 12:32:21;;;;;;;81.00;2.27;;;39.10;12.00;;;;;;4956977;28;20617;-76
2023/06/20 12:34:47;;;;;;;79.37;2.00;;;37.80;10.50;;;;;;4954156;28;20249;-75
2023/06/20 12:37:12;;;;;;;79.60;2.13;;;37.30;13.10;;;;;;4954199;28;20206;-75
2023/06/20 12:39:39;;;;;;;79.27;2.30;;;38.30;13.30;;;;;;4954354;28;20183;-74